sensor_id;sensor_type;location;lat;lon;timestamp;temperature;humidity
10316;DHT22;5203;48.976;8.306;2022-09-17T00:00:57;13.80;83.90
10316;DHT22;5203;48.976;8.306;2022-09-17T00:03:24;13.80;82.10
10316;DHT22;5203;48.976;8.306;2022-09-17T00:05:58;13.70;82.30
10316;DHT22;5203;48.976;8.306;2022-09-17T00:08:24;13.50;82.20
10316;DHT22;5203;48.976;8.306;2022-09-17T00:10:50;13.40;83.60
10316;DHT22;5203;48.976;8.306;2022-09-17T00:13:16;13.30;83.70
10316;DHT22;5203;48.976;8.306;2022-09-17T00:15:43;13.20;84.50
10316;DHT22;5203;48.976;8.306;2022-09-17T00:18:09;13.30;87.10
10316;DHT22;5203;48.976;8.306;2022-09-17T00:20:40;13.30;84.90
10316;DHT22;5203;48.976;8.306;2022-09-17T00:23:06;13.40;84.50
10316;DHT22;5203;48.976;8.306;2022-09-17T00:25:33;13.40;83.80
10316;DHT22;5203;48.976;8.306;2022-09-17T00:27:59;13.50;84.20
10316;DHT22;5203;48.976;8.306;2022-09-17T00:30:25;13.40;83.60
10316;DHT22;5203;48.976;8.306;2022-09-17T00:32:50;13.50;84.00
10316;DHT22;5203;48.976;8.306;2022-09-17T00:35:17;13.60;83.70
10316;DHT22;5203;48.976;8.306;2022-09-17T00:37:43;13.50;83.80
10316;DHT22;5203;48.976;8.306;2022-09-17T00:40:09;13.40;84.00
10316;DHT22;5203;48.976;8.306;2022-09-17T00:42:35;13.50;84.70
10316;DHT22;5203;48.976;8.306;2022-09-17T00:45:00;13.30;86.10
10316;DHT22;5203;48.976;8.306;2022-09-17T00:50:07;13.50;86.10
10316;DHT22;5203;48.976;8.306;2022-09-17T00:52:48;13.40;86.10
10316;DHT22;5203;48.976;8.306;2022-09-17T00:57:43;13.50;87.70
10316;DHT22;5203;48.976;8.306;2022-09-17T01:00:11;13.60;88.10
10316;DHT22;5203;48.976;8.306;2022-09-17T01:02:37;13.60;89.40
10316;DHT22;5203;48.976;8.306;2022-09-17T01:05:04;13.60;89.00
10316;DHT22;5203;48.976;8.306;2022-09-17T01:13:01;13.30;91.90
10316;DHT22;5203;48.976;8.306;2022-09-17T01:32:41;13.50;94.00
10316;DHT22;5203;48.976;8.306;2022-09-17T01:35:25;13.50;91.80
10316;DHT22;5203;48.976;8.306;2022-09-17T01:38:00;13.60;92.90
10316;DHT22;5203;48.976;8.306;2022-09-17T01:40:39;13.60;93.10
10316;DHT22;5203;48.976;8.306;2022-09-17T01:43:11;13.60;91.10
10316;DHT22;5203;48.976;8.306;2022-09-17T01:48:36;13.60;91.00
10316;DHT22;5203;48.976;8.306;2022-09-17T01:51:06;13.60;91.50
10316;DHT22;5203;48.976;8.306;2022-09-17T01:53:54;13.50;92.80
10316;DHT22;5203;48.976;8.306;2022-09-17T02:01:52;13.40;94.00
10316;DHT22;5203;48.976;8.306;2022-09-17T02:04:32;13.40;93.70
10316;DHT22;5203;48.976;8.306;2022-09-17T02:07:05;13.30;94.80
10316;DHT22;5203;48.976;8.306;2022-09-17T02:09:37;13.10;94.80
10316;DHT22;5203;48.976;8.306;2022-09-17T02:12:10;13.10;96.20
10316;DHT22;5203;48.976;8.306;2022-09-17T02:14:48;13.10;96.60
10316;DHT22;5203;48.976;8.306;2022-09-17T02:17:23;13.10;96.60
10316;DHT22;5203;48.976;8.306;2022-09-17T02:19:51;12.90;97.20
10316;DHT22;5203;48.976;8.306;2022-09-17T02:22:49;12.80;98.50
10316;DHT22;5203;48.976;8.306;2022-09-17T02:25:25;12.70;98.70
10316;DHT22;5203;48.976;8.306;2022-09-17T02:30:31;12.60;99.40
10316;DHT22;5203;48.976;8.306;2022-09-17T02:32:57;12.50;99.60
10316;DHT22;5203;48.976;8.306;2022-09-17T02:35:22;12.40;99.90
10316;DHT22;5203;48.976;8.306;2022-09-17T02:37:48;12.30;99.90
10316;DHT22;5203;48.976;8.306;2022-09-17T02:40:16;12.20;99.90
10316;DHT22;5203;48.976;8.306;2022-09-17T02:54:04;12.30;99.40
10316;DHT22;5203;48.976;8.306;2022-09-17T03:01:55;12.50;96.70
10316;DHT22;5203;48.976;8.306;2022-09-17T03:04:24;12.40;97.30
10316;DHT22;5203;48.976;8.306;2022-09-17T03:06:52;12.40;96.80
10316;DHT22;5203;48.976;8.306;2022-09-17T03:09:18;12.20;97.20
10316;DHT22;5203;48.976;8.306;2022-09-17T03:11:45;12.20;98.60
10316;DHT22;5203;48.976;8.306;2022-09-17T03:14:11;12.00;97.80
10316;DHT22;5203;48.976;8.306;2022-09-17T03:16:36;12.10;99.50
10316;DHT22;5203;48.976;8.306;2022-09-17T03:19:02;12.10;98.40
10316;DHT22;5203;48.976;8.306;2022-09-17T03:21:28;12.10;97.80
10316;DHT22;5203;48.976;8.306;2022-09-17T03:23:54;12.20;97.10
10316;DHT22;5203;48.976;8.306;2022-09-17T03:26:20;12.10;97.40
10316;DHT22;5203;48.976;8.306;2022-09-17T03:28:45;11.90;98.50
10316;DHT22;5203;48.976;8.306;2022-09-17T03:31:30;11.90;98.00
10316;DHT22;5203;48.976;8.306;2022-09-17T03:33:56;11.70;99.00
10316;DHT22;5203;48.976;8.306;2022-09-17T03:36:23;11.60;99.40
10316;DHT22;5203;48.976;8.306;2022-09-17T03:38:57;11.60;99.80
10316;DHT22;5203;48.976;8.306;2022-09-17T03:41:23;11.50;99.90
10316;DHT22;5203;48.976;8.306;2022-09-17T03:43:49;11.50;99.90
10316;DHT22;5203;48.976;8.306;2022-09-17T03:46:16;11.50;99.90
10316;DHT22;5203;48.976;8.306;2022-09-17T03:48:41;11.50;99.90
10316;DHT22;5203;48.976;8.306;2022-09-17T03:51:07;11.40;99.90
10316;DHT22;5203;48.976;8.306;2022-09-17T03:53:33;11.50;99.90
10316;DHT22;5203;48.976;8.306;2022-09-17T03:56:00;11.60;99.90
10316;DHT22;5203;48.976;8.306;2022-09-17T03:58:27;11.70;99.90
10316;DHT22;5203;48.976;8.306;2022-09-17T04:00:53;11.80;99.30
10316;DHT22;5203;48.976;8.306;2022-09-17T04:03:22;11.70;98.80
10316;DHT22;5203;48.976;8.306;2022-09-17T04:05:48;11.70;98.60
10316;DHT22;5203;48.976;8.306;2022-09-17T04:08:14;11.80;99.10
10316;DHT22;5203;48.976;8.306;2022-09-17T04:10:40;11.90;98.60
10316;DHT22;5203;48.976;8.306;2022-09-17T04:13:06;11.80;98.70
10316;DHT22;5203;48.976;8.306;2022-09-17T04:15:31;11.60;99.80
10316;DHT22;5203;48.976;8.306;2022-09-17T04:17:57;11.50;99.90
10316;DHT22;5203;48.976;8.306;2022-09-17T04:20:27;11.40;99.90
10316;DHT22;5203;48.976;8.306;2022-09-17T04:22:53;11.40;99.50
10316;DHT22;5203;48.976;8.306;2022-09-17T04:25:19;11.20;99.60
10316;DHT22;5203;48.976;8.306;2022-09-17T04:27:45;11.20;99.90
10316;DHT22;5203;48.976;8.306;2022-09-17T04:30:12;11.30;99.90
10316;DHT22;5203;48.976;8.306;2022-09-17T04:32:39;11.40;99.60
10316;DHT22;5203;48.976;8.306;2022-09-17T04:35:04;11.20;99.70
10316;DHT22;5203;48.976;8.306;2022-09-17T04:37:30;11.20;99.80
10316;DHT22;5203;48.976;8.306;2022-09-17T04:39:56;11.40;99.10
10316;DHT22;5203;48.976;8.306;2022-09-17T04:42:21;11.40;97.40
10316;DHT22;5203;48.976;8.306;2022-09-17T04:44:47;11.40;97.50
10316;DHT22;5203;48.976;8.306;2022-09-17T04:47:13;11.40;97.20
10316;DHT22;5203;48.976;8.306;2022-09-17T04:49:39;11.30;97.80
10316;DHT22;5203;48.976;8.306;2022-09-17T04:52:05;11.30;98.30
10316;DHT22;5203;48.976;8.306;2022-09-17T04:54:30;11.30;98.90
10316;DHT22;5203;48.976;8.306;2022-09-17T04:56:56;11.30;97.80
10316;DHT22;5203;48.976;8.306;2022-09-17T04:59:22;11.40;97.20
10316;DHT22;5203;48.976;8.306;2022-09-17T05:01:48;11.30;97.40
10316;DHT22;5203;48.976;8.306;2022-09-17T05:04:14;11.30;97.40
10316;DHT22;5203;48.976;8.306;2022-09-17T05:06:40;11.30;97.50
10316;DHT22;5203;48.976;8.306;2022-09-17T05:09:06;11.30;96.10
10316;DHT22;5203;48.976;8.306;2022-09-17T05:11:32;11.40;96.10
10316;DHT22;5203;48.976;8.306;2022-09-17T05:13:57;11.40;96.80
10316;DHT22;5203;48.976;8.306;2022-09-17T05:16:23;11.40;95.40
10316;DHT22;5203;48.976;8.306;2022-09-17T05:18:49;11.50;96.40
10316;DHT22;5203;48.976;8.306;2022-09-17T05:21:16;11.40;95.70
10316;DHT22;5203;48.976;8.306;2022-09-17T05:23:42;11.30;97.50
10316;DHT22;5203;48.976;8.306;2022-09-17T05:26:08;11.30;96.90
10316;DHT22;5203;48.976;8.306;2022-09-17T05:28:34;11.10;97.70
10316;DHT22;5203;48.976;8.306;2022-09-17T05:31:00;11.20;96.80
10316;DHT22;5203;48.976;8.306;2022-09-17T05:33:26;11.20;97.10
10316;DHT22;5203;48.976;8.306;2022-09-17T05:35:52;11.10;97.60
10316;DHT22;5203;48.976;8.306;2022-09-17T05:38:18;11.10;98.70
10316;DHT22;5203;48.976;8.306;2022-09-17T05:40:46;11.20;97.90
10316;DHT22;5203;48.976;8.306;2022-09-17T05:43:14;11.20;97.70
10316;DHT22;5203;48.976;8.306;2022-09-17T05:45:39;11.10;96.50
10316;DHT22;5203;48.976;8.306;2022-09-17T05:48:06;11.00;98.00
10316;DHT22;5203;48.976;8.306;2022-09-17T05:50:34;10.90;98.70
10316;DHT22;5203;48.976;8.306;2022-09-17T05:53:05;11.00;98.50
10316;DHT22;5203;48.976;8.306;2022-09-17T05:55:32;11.00;99.80
10316;DHT22;5203;48.976;8.306;2022-09-17T05:57:59;10.90;99.90
10316;DHT22;5203;48.976;8.306;2022-09-17T06:00:25;11.00;99.90
10316;DHT22;5203;48.976;8.306;2022-09-17T06:02:57;11.10;99.90
10316;DHT22;5203;48.976;8.306;2022-09-17T06:05:23;11.20;99.90
10316;DHT22;5203;48.976;8.306;2022-09-17T06:07:49;11.20;99.90
10316;DHT22;5203;48.976;8.306;2022-09-17T06:10:16;11.20;99.90
10316;DHT22;5203;48.976;8.306;2022-09-17T06:12:41;11.30;99.90
10316;DHT22;5203;48.976;8.306;2022-09-17T06:15:07;11.20;99.90
10316;DHT22;5203;48.976;8.306;2022-09-17T06:17:34;11.20;99.90
10316;DHT22;5203;48.976;8.306;2022-09-17T06:20:01;11.20;99.90
10316;DHT22;5203;48.976;8.306;2022-09-17T06:22:27;11.20;99.90
10316;DHT22;5203;48.976;8.306;2022-09-17T06:24:53;11.10;99.90
10316;DHT22;5203;48.976;8.306;2022-09-17T06:27:19;11.10;99.90
10316;DHT22;5203;48.976;8.306;2022-09-17T06:29:44;11.10;99.90
10316;DHT22;5203;48.976;8.306;2022-09-17T06:32:10;11.20;99.90
10316;DHT22;5203;48.976;8.306;2022-09-17T06:34:38;11.20;99.90
10316;DHT22;5203;48.976;8.306;2022-09-17T06:37:04;11.10;99.90
10316;DHT22;5203;48.976;8.306;2022-09-17T06:39:30;11.00;99.90
10316;DHT22;5203;48.976;8.306;2022-09-17T06:41:56;11.10;99.90
10316;DHT22;5203;48.976;8.306;2022-09-17T06:44:21;11.10;99.90
10316;DHT22;5203;48.976;8.306;2022-09-17T06:46:50;11.10;99.90
10316;DHT22;5203;48.976;8.306;2022-09-17T06:49:17;11.00;99.90
10316;DHT22;5203;48.976;8.306;2022-09-17T06:51:43;11.00;99.90
10316;DHT22;5203;48.976;8.306;2022-09-17T06:54:09;11.00;99.90
10316;DHT22;5203;48.976;8.306;2022-09-17T06:56:35;11.10;99.90
10316;DHT22;5203;48.976;8.306;2022-09-17T06:59:01;11.10;99.90
10316;DHT22;5203;48.976;8.306;2022-09-17T07:01:27;11.20;99.90
10316;DHT22;5203;48.976;8.306;2022-09-17T07:03:52;11.20;99.90
10316;DHT22;5203;48.976;8.306;2022-09-17T07:06:19;11.30;99.90
10316;DHT22;5203;48.976;8.306;2022-09-17T07:08:45;11.30;99.90
10316;DHT22;5203;48.976;8.306;2022-09-17T07:11:11;11.40;99.90
10316;DHT22;5203;48.976;8.306;2022-09-17T07:13:38;11.50;99.90
10316;DHT22;5203;48.976;8.306;2022-09-17T07:16:04;11.60;99.90
10316;DHT22;5203;48.976;8.306;2022-09-17T07:18:31;11.60;99.90
10316;DHT22;5203;48.976;8.306;2022-09-17T07:21:01;11.60;99.90
10316;DHT22;5203;48.976;8.306;2022-09-17T07:23:35;11.60;99.90
10316;DHT22;5203;48.976;8.306;2022-09-17T07:26:07;11.60;99.90
10316;DHT22;5203;48.976;8.306;2022-09-17T07:28:37;11.60;99.90
10316;DHT22;5203;48.976;8.306;2022-09-17T07:31:04;11.70;99.90
10316;DHT22;5203;48.976;8.306;2022-09-17T07:33:31;11.80;99.90
10316;DHT22;5203;48.976;8.306;2022-09-17T07:36:06;11.80;99.90
10316;DHT22;5203;48.976;8.306;2022-09-17T07:38:33;11.90;98.80
10316;DHT22;5203;48.976;8.306;2022-09-17T07:41:09;12.00;99.90
10316;DHT22;5203;48.976;8.306;2022-09-17T07:43:36;12.20;97.70
10316;DHT22;5203;48.976;8.306;2022-09-17T07:46:04;12.10;99.80
10316;DHT22;5203;48.976;8.306;2022-09-17T07:48:30;12.00;99.20
10316;DHT22;5203;48.976;8.306;2022-09-17T07:50:56;12.20;99.90
10316;DHT22;5203;48.976;8.306;2022-09-17T07:53:22;12.20;99.90
10316;DHT22;5203;48.976;8.306;2022-09-17T07:55:58;12.20;99.90
10316;DHT22;5203;48.976;8.306;2022-09-17T07:58:29;12.20;99.60
10316;DHT22;5203;48.976;8.306;2022-09-17T08:01:15;12.30;97.90
10316;DHT22;5203;48.976;8.306;2022-09-17T08:03:42;12.20;94.70
10316;DHT22;5203;48.976;8.306;2022-09-17T08:06:12;12.20;98.50
10316;DHT22;5203;48.976;8.306;2022-09-17T08:08:39;12.10;99.00
10316;DHT22;5203;48.976;8.306;2022-09-17T08:11:11;12.10;98.20
10316;DHT22;5203;48.976;8.306;2022-09-17T08:13:37;12.30;98.60
10316;DHT22;5203;48.976;8.306;2022-09-17T08:16:06;12.30;96.40
10316;DHT22;5203;48.976;8.306;2022-09-17T08:18:33;12.40;94.40
10316;DHT22;5203;48.976;8.306;2022-09-17T08:21:01;12.20;91.00
10316;DHT22;5203;48.976;8.306;2022-09-17T08:23:28;12.40;91.70
10316;DHT22;5203;48.976;8.306;2022-09-17T08:25:56;12.70;91.00
10316;DHT22;5203;48.976;8.306;2022-09-17T08:28:22;12.90;89.80
10316;DHT22;5203;48.976;8.306;2022-09-17T08:30:50;13.00;91.00
10316;DHT22;5203;48.976;8.306;2022-09-17T08:33:17;13.10;90.10
10316;DHT22;5203;48.976;8.306;2022-09-17T08:35:50;13.30;90.60
10316;DHT22;5203;48.976;8.306;2022-09-17T08:38:16;13.40;88.30
10316;DHT22;5203;48.976;8.306;2022-09-17T08:43:28;13.30;88.30
10316;DHT22;5203;48.976;8.306;2022-09-17T08:45:56;13.30;89.90
10316;DHT22;5203;48.976;8.306;2022-09-17T08:48:26;13.40;88.70
10316;DHT22;5203;48.976;8.306;2022-09-17T08:50:55;13.30;85.80
10316;DHT22;5203;48.976;8.306;2022-09-17T08:56:15;13.00;86.30
10316;DHT22;5203;48.976;8.306;2022-09-17T09:06:49;13.30;83.80
10316;DHT22;5203;48.976;8.306;2022-09-17T09:09:24;13.20;84.90
10316;DHT22;5203;48.976;8.306;2022-09-17T09:12:05;13.30;84.60
10316;DHT22;5203;48.976;8.306;2022-09-17T09:14:39;13.40;86.50
10316;DHT22;5203;48.976;8.306;2022-09-17T09:17:10;13.40;85.00
10316;DHT22;5203;48.976;8.306;2022-09-17T09:19:43;13.50;82.90
10316;DHT22;5203;48.976;8.306;2022-09-17T09:22:32;13.50;83.70
10316;DHT22;5203;48.976;8.306;2022-09-17T09:27:55;13.80;81.50
10316;DHT22;5203;48.976;8.306;2022-09-17T09:30:24;13.90;80.00
10316;DHT22;5203;48.976;8.306;2022-09-17T09:33:11;14.00;80.00
10316;DHT22;5203;48.976;8.306;2022-09-17T09:35:40;14.20;82.10
10316;DHT22;5203;48.976;8.306;2022-09-17T09:38:31;14.20;84.80
10316;DHT22;5203;48.976;8.306;2022-09-17T09:52:37;15.00;80.50
10316;DHT22;5203;48.976;8.306;2022-09-17T09:57:46;15.10;80.90
10316;DHT22;5203;48.976;8.306;2022-09-17T10:00:33;15.30;77.30
10316;DHT22;5203;48.976;8.306;2022-09-17T10:05:28;15.70;73.90
10316;DHT22;5203;48.976;8.306;2022-09-17T10:07:54;15.80;70.90
10316;DHT22;5203;48.976;8.306;2022-09-17T10:10:20;16.30;72.10
10316;DHT22;5203;48.976;8.306;2022-09-17T10:12:46;16.10;68.90
10316;DHT22;5203;48.976;8.306;2022-09-17T10:15:37;15.80;70.70
10316;DHT22;5203;48.976;8.306;2022-09-17T10:18:19;15.80;69.20
10316;DHT22;5203;48.976;8.306;2022-09-17T10:23:17;15.40;72.30
10316;DHT22;5203;48.976;8.306;2022-09-17T10:25:44;15.20;72.20
10316;DHT22;5203;48.976;8.306;2022-09-17T10:28:33;15.10;71.30
10316;DHT22;5203;48.976;8.306;2022-09-17T10:31:04;15.20;73.10
10316;DHT22;5203;48.976;8.306;2022-09-17T10:33:33;15.60;71.80
10316;DHT22;5203;48.976;8.306;2022-09-17T10:36:04;16.00;67.70
10316;DHT22;5203;48.976;8.306;2022-09-17T10:38:39;16.40;71.50
10316;DHT22;5203;48.976;8.306;2022-09-17T10:43:35;17.10;65.60
10316;DHT22;5203;48.976;8.306;2022-09-17T10:46:01;17.10;62.60
10316;DHT22;5203;48.976;8.306;2022-09-17T10:48:32;17.40;62.40
10316;DHT22;5203;48.976;8.306;2022-09-17T10:50:59;17.10;64.00
10316;DHT22;5203;48.976;8.306;2022-09-17T10:53:27;16.60;64.30
10316;DHT22;5203;48.976;8.306;2022-09-17T11:10:34;15.90;63.50
10316;DHT22;5203;48.976;8.306;2022-09-17T11:13:36;16.10;64.00
10316;DHT22;5203;48.976;8.306;2022-09-17T11:19:03;16.60;58.60
10316;DHT22;5203;48.976;8.306;2022-09-17T11:35:22;16.40;66.00
10316;DHT22;5203;48.976;8.306;2022-09-17T11:41:16;16.30;65.20
10316;DHT22;5203;48.976;8.306;2022-09-17T11:44:31;16.30;65.50
10316;DHT22;5203;48.976;8.306;2022-09-17T11:47:13;16.20;63.90
10316;DHT22;5203;48.976;8.306;2022-09-17T11:52:25;16.20;70.80
10316;DHT22;5203;48.976;8.306;2022-09-17T11:55:10;16.10;72.70
10316;DHT22;5203;48.976;8.306;2022-09-17T11:57:41;16.10;74.80
10316;DHT22;5203;48.976;8.306;2022-09-17T12:00:20;15.90;75.70
10316;DHT22;5203;48.976;8.306;2022-09-17T12:02:56;15.90;74.10
10316;DHT22;5203;48.976;8.306;2022-09-17T12:11:26;15.70;75.30
10316;DHT22;5203;48.976;8.306;2022-09-17T12:14:02;15.60;80.50
10316;DHT22;5203;48.976;8.306;2022-09-17T12:16:44;15.60;84.90
10316;DHT22;5203;48.976;8.306;2022-09-17T12:21:55;15.30;85.30
10316;DHT22;5203;48.976;8.306;2022-09-17T12:24:27;15.10;88.50
10316;DHT22;5203;48.976;8.306;2022-09-17T12:30:12;15.00;89.60
10316;DHT22;5203;48.976;8.306;2022-09-17T12:35:54;14.90;89.80
10316;DHT22;5203;48.976;8.306;2022-09-17T12:44:29;15.40;84.60
10316;DHT22;5203;48.976;8.306;2022-09-17T12:53:01;15.90;83.60
10316;DHT22;5203;48.976;8.306;2022-09-17T13:00:58;16.60;75.70
10316;DHT22;5203;48.976;8.306;2022-09-17T13:03:45;16.80;77.50
10316;DHT22;5203;48.976;8.306;2022-09-17T13:23:50;18.30;61.60
10316;DHT22;5203;48.976;8.306;2022-09-17T13:26:18;19.20;57.80
10316;DHT22;5203;48.976;8.306;2022-09-17T13:28:50;19.40;57.00
10316;DHT22;5203;48.976;8.306;2022-09-17T13:36:46;18.90;57.30
10316;DHT22;5203;48.976;8.306;2022-09-17T13:39:34;18.10;58.90
10316;DHT22;5203;48.976;8.306;2022-09-17T13:42:04;18.00;59.60
10316;DHT22;5203;48.976;8.306;2022-09-17T13:44:34;18.10;61.00
10316;DHT22;5203;48.976;8.306;2022-09-17T13:47:12;18.70;61.10
10316;DHT22;5203;48.976;8.306;2022-09-17T13:49:59;19.10;56.00
10316;DHT22;5203;48.976;8.306;2022-09-17T13:52:36;18.80;56.20
10316;DHT22;5203;48.976;8.306;2022-09-17T13:55:03;18.40;58.90
10316;DHT22;5203;48.976;8.306;2022-09-17T13:57:31;17.90;59.40
10316;DHT22;5203;48.976;8.306;2022-09-17T13:59:59;17.60;60.70
10316;DHT22;5203;48.976;8.306;2022-09-17T14:02:28;17.30;61.00
10316;DHT22;5203;48.976;8.306;2022-09-17T14:04:55;17.10;63.20
10316;DHT22;5203;48.976;8.306;2022-09-17T14:09:54;17.10;64.70
10316;DHT22;5203;48.976;8.306;2022-09-17T14:15:36;16.70;67.30
10316;DHT22;5203;48.976;8.306;2022-09-17T14:23:42;16.70;68.80
10316;DHT22;5203;48.976;8.306;2022-09-17T14:26:18;16.80;69.50
10316;DHT22;5203;48.976;8.306;2022-09-17T14:31:37;16.80;63.90
10316;DHT22;5203;48.976;8.306;2022-09-17T14:34:20;16.80;62.60
10316;DHT22;5203;48.976;8.306;2022-09-17T14:36:47;16.50;67.90
10316;DHT22;5203;48.976;8.306;2022-09-17T14:39:21;16.30;67.10
10316;DHT22;5203;48.976;8.306;2022-09-17T14:41:47;16.30;68.10
10316;DHT22;5203;48.976;8.306;2022-09-17T14:44:18;16.20;64.80
10316;DHT22;5203;48.976;8.306;2022-09-17T14:47:00;16.40;61.70
10316;DHT22;5203;48.976;8.306;2022-09-17T14:49:31;16.40;66.20
10316;DHT22;5203;48.976;8.306;2022-09-17T14:51:57;16.30;63.90
10316;DHT22;5203;48.976;8.306;2022-09-17T14:54:27;16.20;62.50
10316;DHT22;5203;48.976;8.306;2022-09-17T14:57:47;16.10;65.10
10316;DHT22;5203;48.976;8.306;2022-09-17T15:00:05;16.80;62.90
10316;DHT22;5203;48.976;8.306;2022-09-17T15:02:38;16.90;62.00
10316;DHT22;5203;48.976;8.306;2022-09-17T15:05:28;17.00;62.20
10316;DHT22;5203;48.976;8.306;2022-09-17T15:08:20;17.40;63.10
10316;DHT22;5203;48.976;8.306;2022-09-17T15:13:26;17.50;62.70
10316;DHT22;5203;48.976;8.306;2022-09-17T15:16:05;17.50;62.60
10316;DHT22;5203;48.976;8.306;2022-09-17T15:18:35;17.20;64.70
10316;DHT22;5203;48.976;8.306;2022-09-17T15:21:05;17.30;65.10
10316;DHT22;5203;48.976;8.306;2022-09-17T15:23:32;18.10;61.40
10316;DHT22;5203;48.976;8.306;2022-09-17T15:26:00;18.50;60.50
10316;DHT22;5203;48.976;8.306;2022-09-17T15:28:33;18.30;58.20
10316;DHT22;5203;48.976;8.306;2022-09-17T15:31:00;18.70;58.80
10316;DHT22;5203;48.976;8.306;2022-09-17T15:33:26;18.90;57.50
10316;DHT22;5203;48.976;8.306;2022-09-17T15:38:37;19.00;56.90
10316;DHT22;5203;48.976;8.306;2022-09-17T15:41:32;19.30;56.00
10316;DHT22;5203;48.976;8.306;2022-09-17T15:44:22;18.90;56.10
10316;DHT22;5203;48.976;8.306;2022-09-17T15:46:48;18.40;56.50
10316;DHT22;5203;48.976;8.306;2022-09-17T15:49:31;18.00;58.90
10316;DHT22;5203;48.976;8.306;2022-09-17T15:52:23;17.50;59.00
10316;DHT22;5203;48.976;8.306;2022-09-17T15:54:51;17.30;62.50
10316;DHT22;5203;48.976;8.306;2022-09-17T15:57:17;17.20;63.00
10316;DHT22;5203;48.976;8.306;2022-09-17T15:59:43;17.10;63.20
10316;DHT22;5203;48.976;8.306;2022-09-17T16:02:30;16.90;65.00
10316;DHT22;5203;48.976;8.306;2022-09-17T16:05:46;16.80;64.60
10316;DHT22;5203;48.976;8.306;2022-09-17T16:08:19;16.60;65.80
10316;DHT22;5203;48.976;8.306;2022-09-17T16:10:46;16.60;67.70
10316;DHT22;5203;48.976;8.306;2022-09-17T16:13:11;16.40;74.10
10316;DHT22;5203;48.976;8.306;2022-09-17T16:15:38;16.30;75.70
10316;DHT22;5203;48.976;8.306;2022-09-17T16:18:05;16.10;76.50
10316;DHT22;5203;48.976;8.306;2022-09-17T16:20:31;16.20;79.80
10316;DHT22;5203;48.976;8.306;2022-09-17T16:22:57;16.10;81.10
10316;DHT22;5203;48.976;8.306;2022-09-17T16:25:26;16.10;79.70
10316;DHT22;5203;48.976;8.306;2022-09-17T16:27:59;16.10;82.90
10316;DHT22;5203;48.976;8.306;2022-09-17T16:30:27;16.00;82.80
10316;DHT22;5203;48.976;8.306;2022-09-17T16:32:52;16.00;81.70
10316;DHT22;5203;48.976;8.306;2022-09-17T16:35:21;16.10;81.60
10316;DHT22;5203;48.976;8.306;2022-09-17T16:37:50;16.10;90.20
10316;DHT22;5203;48.976;8.306;2022-09-17T16:40:18;16.10;90.70
10316;DHT22;5203;48.976;8.306;2022-09-17T16:42:44;16.00;91.50
10316;DHT22;5203;48.976;8.306;2022-09-17T16:45:10;15.50;95.10
10316;DHT22;5203;48.976;8.306;2022-09-17T16:47:37;15.20;96.00
10316;DHT22;5203;48.976;8.306;2022-09-17T16:50:08;14.80;96.90
10316;DHT22;5203;48.976;8.306;2022-09-17T16:52:34;14.60;98.40
10316;DHT22;5203;48.976;8.306;2022-09-17T16:55:01;14.50;96.10
10316;DHT22;5203;48.976;8.306;2022-09-17T16:57:28;14.60;96.70
10316;DHT22;5203;48.976;8.306;2022-09-17T16:59:54;14.60;95.90
10316;DHT22;5203;48.976;8.306;2022-09-17T17:02:20;14.80;96.50
10316;DHT22;5203;48.976;8.306;2022-09-17T17:04:46;15.10;94.10
10316;DHT22;5203;48.976;8.306;2022-09-17T17:07:12;15.20;93.80
10316;DHT22;5203;48.976;8.306;2022-09-17T17:09:38;15.20;94.40
10316;DHT22;5203;48.976;8.306;2022-09-17T17:12:04;15.20;92.90
10316;DHT22;5203;48.976;8.306;2022-09-17T17:14:30;15.10;94.30
10316;DHT22;5203;48.976;8.306;2022-09-17T17:16:55;15.30;93.30
10316;DHT22;5203;48.976;8.306;2022-09-17T17:19:21;15.40;92.80
10316;DHT22;5203;48.976;8.306;2022-09-17T17:21:49;15.50;91.80
10316;DHT22;5203;48.976;8.306;2022-09-17T17:24:15;15.50;91.90
10316;DHT22;5203;48.976;8.306;2022-09-17T17:26:41;15.50;92.50
10316;DHT22;5203;48.976;8.306;2022-09-17T17:29:07;15.50;90.20
10316;DHT22;5203;48.976;8.306;2022-09-17T17:31:34;15.40;90.10
10316;DHT22;5203;48.976;8.306;2022-09-17T17:33:59;15.50;91.10
10316;DHT22;5203;48.976;8.306;2022-09-17T17:36:26;15.40;92.00
10316;DHT22;5203;48.976;8.306;2022-09-17T17:39:00;15.40;91.90
10316;DHT22;5203;48.976;8.306;2022-09-17T17:41:26;15.40;93.00
10316;DHT22;5203;48.976;8.306;2022-09-17T17:43:53;15.40;91.40
10316;DHT22;5203;48.976;8.306;2022-09-17T17:46:19;15.30;91.70
10316;DHT22;5203;48.976;8.306;2022-09-17T17:48:45;15.20;91.50
10316;DHT22;5203;48.976;8.306;2022-09-17T17:51:11;15.10;94.10
10316;DHT22;5203;48.976;8.306;2022-09-17T17:53:40;15.10;90.90
10316;DHT22;5203;48.976;8.306;2022-09-17T17:56:07;15.00;89.10
10316;DHT22;5203;48.976;8.306;2022-09-17T17:58:33;14.80;88.90
10316;DHT22;5203;48.976;8.306;2022-09-17T18:00:59;14.70;89.00
10316;DHT22;5203;48.976;8.306;2022-09-17T18:03:25;14.70;89.70
10316;DHT22;5203;48.976;8.306;2022-09-17T18:05:54;14.50;89.00
10316;DHT22;5203;48.976;8.306;2022-09-17T18:08:25;14.40;90.70
10316;DHT22;5203;48.976;8.306;2022-09-17T18:10:55;14.30;91.70
10316;DHT22;5203;48.976;8.306;2022-09-17T18:13:22;14.30;92.00
10316;DHT22;5203;48.976;8.306;2022-09-17T18:15:56;14.10;90.80
10316;DHT22;5203;48.976;8.306;2022-09-17T18:18:24;13.90;90.90
10316;DHT22;5203;48.976;8.306;2022-09-17T18:20:51;13.80;92.30
10316;DHT22;5203;48.976;8.306;2022-09-17T18:23:18;13.80;93.80
10316;DHT22;5203;48.976;8.306;2022-09-17T18:25:55;13.80;95.10
10316;DHT22;5203;48.976;8.306;2022-09-17T18:28:22;13.60;93.70
10316;DHT22;5203;48.976;8.306;2022-09-17T18:30:48;13.50;94.20
10316;DHT22;5203;48.976;8.306;2022-09-17T18:33:27;13.10;95.10
10316;DHT22;5203;48.976;8.306;2022-09-17T18:35:53;12.90;95.60
10316;DHT22;5203;48.976;8.306;2022-09-17T18:38:24;12.70;97.20
10316;DHT22;5203;48.976;8.306;2022-09-17T18:40:50;12.60;98.80
10316;DHT22;5203;48.976;8.306;2022-09-17T18:43:16;12.70;98.50
10316;DHT22;5203;48.976;8.306;2022-09-17T18:45:41;12.70;97.60
10316;DHT22;5203;48.976;8.306;2022-09-17T18:48:07;12.80;98.20
10316;DHT22;5203;48.976;8.306;2022-09-17T18:50:33;12.80;98.40
10316;DHT22;5203;48.976;8.306;2022-09-17T18:53:00;12.90;97.50
10316;DHT22;5203;48.976;8.306;2022-09-17T18:55:26;12.90;98.20
10316;DHT22;5203;48.976;8.306;2022-09-17T18:57:53;12.80;98.50
10316;DHT22;5203;48.976;8.306;2022-09-17T19:00:20;12.80;98.50
10316;DHT22;5203;48.976;8.306;2022-09-17T19:02:49;13.00;97.50
10316;DHT22;5203;48.976;8.306;2022-09-17T19:05:16;13.10;98.00
10316;DHT22;5203;48.976;8.306;2022-09-17T19:07:43;13.10;97.10
10316;DHT22;5203;48.976;8.306;2022-09-17T19:10:09;13.10;97.90
10316;DHT22;5203;48.976;8.306;2022-09-17T19:12:35;13.00;98.00
10316;DHT22;5203;48.976;8.306;2022-09-17T19:15:00;12.90;98.90
10316;DHT22;5203;48.976;8.306;2022-09-17T19:17:27;13.00;98.30
10316;DHT22;5203;48.976;8.306;2022-09-17T19:19:52;12.90;98.20
10316;DHT22;5203;48.976;8.306;2022-09-17T19:22:18;12.80;98.70
10316;DHT22;5203;48.976;8.306;2022-09-17T19:24:44;12.80;99.20
10316;DHT22;5203;48.976;8.306;2022-09-17T19:27:09;12.70;99.40